createdAt,value
2023-05-02T00:01:36.307Z,99.90
2023-05-02T00:04:05.384Z,99.90
2023-05-02T00:06:35.549Z,99.90
2023-05-02T00:09:05.175Z,99.90
2023-05-02T00:11:33.672Z,99.90
2023-05-02T00:14:02.144Z,99.90
2023-05-02T00:16:30.713Z,99.90
2023-05-02T00:18:59.178Z,99.90
2023-05-02T00:21:29.276Z,99.90
2023-05-02T00:23:59.261Z,99.90
2023-05-02T00:26:28.922Z,99.90
2023-05-02T00:28:57.365Z,99.90
2023-05-02T00:31:26.007Z,99.90
2023-05-02T00:33:54.485Z,99.90
2023-05-02T00:36:47.780Z,99.90
2023-05-02T00:39:17.601Z,99.90
2023-05-02T00:41:46.042Z,99.90
2023-05-02T00:44:14.643Z,99.90
2023-05-02T00:46:43.286Z,99.90
2023-05-02T00:49:11.767Z,99.90
2023-05-02T00:51:41.308Z,99.90
2023-05-02T00:54:09.845Z,99.90
2023-05-02T00:56:39.724Z,99.90
2023-05-02T00:59:12.074Z,99.90
2023-05-02T01:01:57.915Z,99.90
2023-05-02T01:04:41.363Z,99.90
2023-05-02T01:07:37.038Z,99.90
2023-05-02T01:10:24.831Z,99.90
2023-05-02T01:13:04.700Z,99.90
2023-05-02T01:15:38.704Z,99.90
2023-05-02T01:18:12.089Z,99.90
2023-05-02T01:20:46.034Z,99.90
2023-05-02T01:23:27.022Z,99.90
2023-05-02T01:26:13.728Z,99.90
2023-05-02T01:29:01.865Z,99.90
2023-05-02T01:31:36.827Z,99.90
2023-05-02T01:34:10.845Z,99.90
2023-05-02T01:36:45.592Z,99.90
2023-05-02T01:39:20.416Z,99.90
2023-05-02T01:41:52.425Z,99.90
2023-05-02T01:44:25.420Z,99.90
2023-05-02T01:46:56.429Z,99.90
2023-05-02T01:49:28.051Z,99.90
2023-05-02T01:51:58.207Z,99.90
2023-05-02T01:54:28.656Z,99.90
2023-05-02T01:56:58.554Z,99.90
2023-05-02T01:59:31.195Z,99.90
2023-05-02T02:02:07.718Z,99.90
2023-05-02T02:04:39.138Z,99.90
2023-05-02T02:07:14.237Z,99.90
2023-05-02T02:09:43.210Z,99.90
2023-05-02T02:12:18.289Z,99.90
2023-05-02T02:14:58.215Z,99.90
2023-05-02T02:17:37.887Z,99.90
2023-05-02T02:20:11.275Z,99.90
2023-05-02T02:22:42.225Z,99.90
2023-05-02T02:25:18.087Z,99.90
2023-05-02T02:27:46.861Z,99.90
2023-05-02T02:30:16.918Z,99.90
2023-05-02T02:32:45.471Z,99.90
2023-05-02T02:35:14.039Z,99.90
2023-05-02T02:37:49.410Z,99.90
2023-05-02T02:40:31.091Z,99.90
2023-05-02T02:43:20.447Z,99.90
2023-05-02T02:46:05.235Z,99.90
2023-05-02T02:48:38.145Z,99.90
2023-05-02T02:51:16.050Z,99.90
2023-05-02T02:54:05.942Z,99.90
2023-05-02T02:56:43.435Z,99.90
2023-05-02T02:59:18.910Z,99.90
2023-05-02T03:02:03.687Z,99.90
2023-05-02T03:04:35.122Z,99.90
2023-05-02T03:07:04.981Z,99.90
2023-05-02T03:09:43.453Z,99.90
2023-05-02T03:12:13.173Z,99.90
2023-05-02T03:14:42.512Z,99.90
2023-05-02T03:17:12.384Z,99.90
2023-05-02T03:19:41.135Z,99.90
2023-05-02T03:22:09.686Z,99.90
2023-05-02T03:24:38.138Z,99.90
2023-05-02T03:27:06.960Z,99.90
2023-05-02T03:29:35.491Z,99.90
2023-05-02T03:32:04.106Z,99.90
2023-05-02T03:34:34.080Z,99.90
2023-05-02T03:37:02.615Z,99.90
2023-05-02T03:39:31.184Z,99.90
2023-05-02T03:41:59.692Z,99.90
2023-05-02T03:44:28.202Z,99.90
2023-05-02T03:46:56.707Z,99.90
2023-05-02T03:49:25.226Z,99.90
2023-05-02T03:51:55.246Z,99.90
2023-05-02T03:54:24.094Z,99.90
2023-05-02T03:56:52.753Z,99.90
2023-05-02T03:59:21.211Z,99.90
2023-05-02T04:01:51.236Z,99.90
2023-05-02T04:04:19.857Z,99.90
2023-05-02T04:06:48.424Z,99.90
2023-05-02T04:09:19.221Z,99.90
2023-05-02T04:11:47.816Z,99.90
2023-05-02T04:14:16.271Z,99.90
2023-05-02T04:16:50.084Z,99.90
2023-05-02T04:19:19.335Z,99.90
2023-05-02T04:21:47.838Z,99.90
2023-05-02T04:24:17.692Z,99.90
2023-05-02T04:26:47.613Z,99.90
2023-05-02T04:29:16.050Z,99.90
2023-05-02T04:31:44.960Z,99.90
2023-05-02T04:34:13.510Z,99.90
2023-05-02T04:36:42.049Z,99.90
2023-05-02T04:39:10.841Z,99.90
2023-05-02T04:41:40.821Z,99.90
2023-05-02T04:44:09.285Z,99.90
2023-05-02T04:46:37.796Z,99.90
2023-05-02T04:49:06.357Z,99.90
2023-05-02T04:51:35.127Z,99.90
2023-05-02T04:54:03.565Z,99.90
2023-05-02T04:56:32.057Z,99.90
2023-05-02T04:59:01.972Z,99.90
2023-05-02T05:01:30.872Z,99.90
2023-05-02T05:03:59.491Z,99.90
2023-05-02T05:06:28.432Z,99.90
2023-05-02T05:09:24.766Z,99.90
2023-05-02T05:11:53.258Z,99.90
2023-05-02T05:14:24.330Z,99.90
2023-05-02T05:16:52.890Z,99.90
2023-05-02T05:19:21.365Z,99.90
2023-05-02T05:22:15.385Z,99.90
2023-05-02T05:24:43.866Z,99.90
2023-05-02T05:27:12.367Z,99.90
2023-05-02T05:29:42.233Z,99.90
2023-05-02T05:32:35.731Z,99.90
2023-05-02T05:35:16.541Z,99.90
2023-05-02T05:37:44.977Z,99.90
2023-05-02T05:40:13.888Z,99.90
2023-05-02T05:42:42.377Z,99.90
2023-05-02T05:45:19.662Z,99.90
2023-05-02T05:47:48.221Z,99.90
2023-05-02T05:50:17.002Z,99.90
2023-05-02T05:52:45.464Z,99.90
2023-05-02T05:55:42.473Z,99.90
2023-05-02T05:58:11.089Z,99.90
2023-05-02T06:00:42.996Z,99.90
2023-05-02T06:03:11.729Z,99.90
2023-05-02T06:05:40.842Z,99.90
2023-05-02T06:08:09.415Z,99.90
2023-05-02T06:10:37.850Z,99.90
2023-05-02T06:13:06.435Z,99.90
2023-05-02T06:15:36.083Z,99.90
2023-05-02T06:18:06.223Z,99.90
2023-05-02T06:20:36.494Z,99.90
2023-05-02T06:23:04.995Z,99.90
2023-05-02T06:25:34.028Z,99.90
2023-05-02T06:28:02.447Z,99.90
2023-05-02T06:30:31.051Z,99.90
2023-05-02T06:32:59.556Z,99.90
2023-05-02T06:35:29.486Z,99.90
2023-05-02T06:38:07.134Z,99.90
2023-05-02T06:40:37.593Z,99.90
2023-05-02T06:43:06.000Z,99.90
2023-05-02T06:45:34.496Z,99.90
2023-05-02T06:48:02.995Z,99.90
2023-05-02T06:50:32.856Z,99.90
2023-05-02T06:53:01.472Z,99.90
2023-05-02T06:55:30.296Z,99.90
2023-05-02T06:57:58.909Z,99.90
2023-05-02T07:00:27.387Z,99.90
2023-05-02T07:02:56.667Z,99.90
2023-05-02T07:05:25.228Z,99.90
2023-05-02T07:07:55.175Z,99.90
2023-05-02T07:10:23.963Z,99.90
2023-05-02T07:12:52.427Z,99.90
2023-05-02T07:15:21.120Z,99.90
2023-05-02T07:17:49.706Z,99.90
2023-05-02T07:20:18.229Z,99.90
2023-05-02T07:22:46.761Z,99.90
2023-05-02T07:25:16.831Z,99.90
2023-05-02T07:27:45.249Z,99.90
2023-05-02T07:30:14.758Z,99.90
2023-05-02T07:32:43.269Z,99.90
2023-05-02T07:35:11.782Z,99.90
2023-05-02T07:37:40.185Z,97.70
2023-05-02T07:40:10.688Z,96.60
2023-05-02T07:42:41.799Z,98.10
2023-05-02T07:45:11.494Z,99.30
2023-05-02T07:47:39.986Z,99.40
2023-05-02T07:50:09.752Z,96.90
2023-05-02T07:52:38.293Z,98.20
2023-05-02T07:55:08.439Z,96.60
2023-05-02T07:57:36.964Z,95.90
2023-05-02T08:00:10.374Z,92.90
2023-05-02T08:02:39.191Z,91.90
2023-05-02T08:05:09.423Z,91.90
2023-05-02T08:07:38.003Z,92.20
2023-05-02T08:10:08.064Z,94.00
2023-05-02T08:12:40.929Z,92.60
2023-05-02T08:15:14.454Z,91.30
2023-05-02T08:17:43.011Z,90.00
2023-05-02T08:20:12.431Z,91.80
2023-05-02T08:22:41.012Z,90.50
2023-05-02T08:25:10.344Z,89.60
2023-05-02T08:27:38.833Z,88.60
2023-05-02T08:30:10.507Z,89.70
2023-05-02T08:32:39.306Z,86.70
2023-05-02T08:35:09.174Z,84.10
2023-05-02T08:37:37.775Z,85.40
2023-05-02T08:40:11.725Z,85.10
2023-05-02T08:42:44.937Z,80.00
2023-05-02T08:45:16.884Z,81.40
2023-05-02T08:47:48.189Z,78.80
2023-05-02T08:50:19.533Z,79.50
2023-05-02T08:52:52.299Z,84.10
2023-05-02T08:55:27.812Z,81.90
2023-05-02T08:57:59.548Z,80.50
2023-05-02T09:00:34.030Z,77.20
2023-05-02T09:03:23.764Z,77.60
2023-05-02T09:06:19.362Z,75.60
2023-05-02T09:08:50.458Z,73.70
2023-05-02T09:11:19.740Z,74.40
2023-05-02T09:13:49.780Z,74.20
2023-05-02T09:16:25.486Z,73.70
2023-05-02T09:18:56.204Z,74.40
2023-05-02T09:21:40.092Z,74.50
2023-05-02T09:24:19.375Z,74.80
2023-05-02T09:27:01.260Z,72.80
2023-05-02T09:29:35.872Z,71.50
2023-05-02T09:32:08.002Z,74.10
2023-05-02T09:34:37.527Z,71.90
2023-05-02T09:37:06.495Z,71.90
2023-05-02T09:39:35.025Z,71.20
2023-05-02T09:42:03.973Z,70.00
2023-05-02T09:44:39.328Z,69.40
2023-05-02T09:47:09.747Z,70.40
2023-05-02T09:49:44.892Z,70.20
2023-05-02T09:52:14.794Z,71.70
2023-05-02T09:54:43.744Z,70.00
2023-05-02T09:57:12.215Z,67.10
2023-05-02T09:59:41.725Z,66.50
2023-05-02T10:02:13.476Z,66.10
2023-05-02T10:04:43.148Z,67.10
2023-05-02T10:07:13.904Z,68.10
2023-05-02T10:09:46.328Z,69.00
2023-05-02T10:12:17.315Z,67.70
2023-05-02T10:14:51.938Z,65.30
2023-05-02T10:17:32.096Z,64.90
2023-05-02T10:20:05.577Z,65.00
2023-05-02T10:22:36.226Z,65.70
2023-05-02T10:25:06.263Z,64.80
2023-05-02T10:27:34.989Z,64.40
2023-05-02T10:30:04.391Z,65.20
2023-05-02T10:32:35.400Z,64.60
2023-05-02T10:35:07.136Z,63.40
2023-05-02T10:38:26.176Z,63.40
2023-05-02T10:41:00.226Z,64.20
2023-05-02T10:43:34.730Z,63.60
2023-05-02T10:46:04.102Z,65.00
2023-05-02T10:48:35.429Z,63.10
2023-05-02T10:51:04.093Z,63.30
2023-05-02T10:53:36.547Z,62.10
2023-05-02T10:56:18.352Z,62.10
2023-05-02T10:58:48.967Z,62.80
2023-05-02T11:01:38.133Z,61.30
2023-05-02T11:04:12.152Z,60.70
2023-05-02T11:07:56.195Z,62.30
2023-05-02T11:10:30.448Z,61.70
2023-05-02T11:13:01.283Z,61.40
2023-05-02T11:15:58.084Z,59.40
2023-05-02T11:18:26.909Z,59.60
2023-05-02T11:21:39.109Z,59.10
2023-05-02T11:24:41.254Z,57.60
2023-05-02T11:27:40.860Z,59.40
2023-05-02T11:30:11.194Z,58.90
2023-05-02T11:33:20.375Z,59.60
2023-05-02T11:35:50.297Z,58.70
2023-05-02T11:38:22.693Z,59.60
2023-05-02T11:41:04.478Z,58.80
2023-05-02T11:43:33.551Z,57.60
2023-05-02T11:46:03.606Z,58.30
2023-05-02T11:48:32.622Z,58.30
2023-05-02T11:51:05.188Z,57.80
2023-05-02T11:53:41.287Z,56.90
2023-05-02T11:56:10.161Z,56.30
2023-05-02T11:58:38.679Z,56.60
2023-05-02T12:01:15.113Z,56.10
2023-05-02T12:03:44.156Z,56.20
2023-05-02T12:06:15.347Z,57.70
2023-05-02T12:08:46.707Z,56.70
2023-05-02T12:11:16.743Z,58.40
2023-05-02T12:13:50.233Z,58.60
2023-05-02T12:16:22.313Z,57.80
2023-05-02T12:18:51.123Z,57.10
2023-05-02T12:21:20.711Z,56.60
2023-05-02T12:23:50.856Z,56.10
2023-05-02T12:26:21.422Z,56.80
2023-05-02T12:28:51.596Z,57.90
2023-05-02T12:31:20.838Z,57.50
2023-05-02T12:34:14.159Z,58.90
2023-05-02T12:36:46.209Z,59.10
2023-05-02T12:39:16.413Z,57.50
2023-05-02T12:41:46.212Z,58.90
2023-05-02T12:44:14.756Z,58.30
2023-05-02T12:47:01.585Z,57.30
2023-05-02T12:49:31.788Z,58.00
2023-05-02T12:52:00.357Z,57.90
2023-05-02T12:54:30.209Z,58.90
2023-05-02T12:56:58.960Z,58.00
2023-05-02T12:59:30.038Z,57.20
2023-05-02T13:01:59.217Z,57.20
2023-05-02T13:04:36.398Z,57.70
2023-05-02T13:07:04.890Z,56.00
2023-05-02T13:09:34.930Z,56.50
2023-05-02T13:12:04.633Z,55.90
2023-05-02T13:14:33.234Z,56.00
2023-05-02T13:17:01.871Z,55.80
2023-05-02T13:19:31.596Z,56.30
2023-05-02T13:22:00.204Z,55.60
2023-05-02T13:24:28.697Z,56.70
2023-05-02T13:26:58.558Z,55.50
2023-05-02T13:29:26.930Z,56.20
2023-05-02T13:31:55.418Z,55.60
2023-05-02T13:34:26.962Z,55.40
2023-05-02T13:36:55.389Z,55.00
2023-05-02T13:39:23.898Z,54.80
2023-05-02T13:41:52.305Z,55.30
2023-05-02T13:44:22.310Z,55.60
2023-05-02T13:46:50.800Z,54.80
2023-05-02T13:49:19.263Z,54.90
2023-05-02T13:51:48.662Z,54.90
2023-05-02T13:54:17.870Z,55.10
2023-05-02T13:56:46.353Z,55.90
2023-05-02T13:59:14.863Z,54.80
2023-05-02T14:01:44.812Z,55.80
2023-05-02T14:04:13.480Z,54.80
2023-05-02T14:06:41.989Z,55.10
2023-05-02T14:09:10.637Z,54.40
2023-05-02T14:11:39.121Z,54.70
2023-05-02T14:14:09.032Z,54.20
2023-05-02T14:16:37.537Z,54.30
2023-05-02T14:19:25.743Z,55.10
2023-05-02T14:21:54.203Z,53.60
2023-05-02T14:24:24.682Z,54.10
2023-05-02T14:26:53.158Z,54.50
2023-05-02T14:29:21.688Z,54.90
2023-05-02T14:32:10.607Z,54.10
2023-05-02T14:35:06.057Z,54.00
2023-05-02T14:37:34.638Z,54.10
2023-05-02T14:40:03.722Z,54.10
2023-05-02T14:42:32.490Z,54.50
2023-05-02T14:45:02.468Z,55.00
2023-05-02T14:47:32.068Z,54.70
2023-05-02T14:50:00.973Z,53.70
2023-05-02T14:52:31.104Z,54.10
2023-05-02T14:55:01.427Z,53.90
2023-05-02T14:57:29.945Z,53.90
2023-05-02T14:59:58.725Z,54.40
2023-05-02T15:02:27.465Z,55.20
2023-05-02T15:04:55.955Z,55.10
2023-05-02T15:07:24.561Z,55.30
2023-05-02T15:09:54.507Z,55.50
2023-05-02T15:12:22.988Z,55.70
2023-05-02T15:14:51.472Z,54.20
2023-05-02T15:17:19.972Z,54.20
2023-05-02T15:19:48.436Z,55.00
2023-05-02T15:22:18.346Z,54.60
2023-05-02T15:24:46.831Z,55.40
2023-05-02T15:27:16.613Z,55.20
2023-05-02T15:29:45.004Z,54.70
2023-05-02T15:32:41.369Z,54.80
2023-05-02T15:35:35.890Z,54.90
2023-05-02T15:38:04.469Z,55.10
2023-05-02T15:40:32.907Z,54.90
2023-05-02T15:43:02.717Z,55.00
2023-05-02T15:45:31.527Z,54.70
2023-05-02T15:48:00.069Z,54.70
2023-05-02T15:50:28.648Z,54.50
2023-05-02T15:52:57.116Z,54.20
2023-05-02T15:55:26.758Z,54.60
2023-05-02T15:57:55.224Z,54.90
2023-05-02T16:00:25.904Z,54.20
2023-05-02T16:02:55.650Z,53.90
2023-05-02T16:05:24.309Z,53.90
2023-05-02T16:07:52.749Z,54.40
2023-05-02T16:10:21.478Z,53.90
2023-05-02T16:12:49.939Z,53.80
2023-05-02T16:15:18.594Z,53.40
2023-05-02T16:17:49.071Z,53.50
2023-05-02T16:20:33.972Z,53.70
2023-05-02T16:23:02.649Z,53.50
2023-05-02T16:25:31.264Z,53.40
2023-05-02T16:27:59.779Z,53.40
2023-05-02T16:30:28.994Z,54.00
2023-05-02T16:32:59.471Z,54.30
2023-05-02T16:36:02.800Z,54.20
2023-05-02T16:38:31.414Z,54.40
2023-05-02T16:40:59.983Z,54.60
2023-05-02T16:43:28.434Z,54.50
2023-05-02T16:46:22.209Z,54.90
2023-05-02T16:48:52.091Z,55.10
2023-05-02T16:51:20.912Z,55.00
2023-05-02T16:53:49.640Z,55.30
2023-05-02T16:56:32.000Z,55.50
2023-05-02T16:59:00.796Z,55.90
2023-05-02T17:01:38.141Z,56.10
2023-05-02T17:04:08.041Z,56.30
2023-05-02T17:06:36.639Z,56.00
2023-05-02T17:09:05.392Z,56.30
2023-05-02T17:11:43.818Z,56.40
2023-05-02T17:14:13.319Z,56.50
2023-05-02T17:16:42.074Z,56.70
2023-05-02T17:19:36.996Z,56.80
2023-05-02T17:22:06.795Z,56.90
2023-05-02T17:24:36.535Z,57.00
2023-05-02T17:27:05.284Z,57.00
2023-05-02T17:29:59.719Z,57.30
2023-05-02T17:32:28.517Z,57.30
2023-05-02T17:34:58.805Z,57.70
2023-05-02T17:37:27.538Z,57.50
2023-05-02T17:39:56.237Z,57.40
2023-05-02T17:42:24.751Z,57.40
2023-05-02T17:44:54.045Z,57.50
2023-05-02T17:47:22.699Z,57.60
2023-05-02T17:49:53.229Z,57.80
2023-05-02T17:52:23.169Z,57.70
2023-05-02T17:54:51.889Z,57.90
2023-05-02T17:57:20.431Z,57.80
2023-05-02T17:59:50.631Z,57.90
2023-05-02T18:02:19.020Z,58.30
2023-05-02T18:04:48.052Z,58.20
2023-05-02T18:07:16.579Z,58.60
2023-05-02T18:09:46.460Z,59.00
2023-05-02T18:12:15.779Z,59.00
2023-05-02T18:14:44.255Z,59.90
2023-05-02T18:17:12.793Z,59.30
2023-05-02T18:19:41.730Z,59.60
2023-05-02T18:22:10.517Z,60.40
2023-05-02T18:24:39.049Z,59.90
2023-05-02T18:27:15.093Z,60.30
2023-05-02T18:29:43.940Z,60.60
2023-05-02T18:32:12.909Z,60.80
2023-05-02T18:35:10.538Z,60.90
2023-05-02T18:38:07.635Z,61.20
2023-05-02T18:40:36.155Z,61.70
2023-05-02T18:43:06.007Z,61.80
2023-05-02T18:45:34.915Z,62.30
2023-05-02T18:48:04.113Z,62.60
2023-05-02T18:50:36.516Z,63.20
2023-05-02T18:53:05.155Z,63.50
2023-05-02T18:55:34.122Z,63.90
2023-05-02T18:58:02.674Z,64.10
2023-05-02T19:00:36.962Z,64.00
2023-05-02T19:03:06.266Z,64.20
2023-05-02T19:05:35.659Z,64.20
2023-05-02T19:08:05.462Z,64.00
2023-05-02T19:10:59.473Z,64.20
2023-05-02T19:13:28.101Z,64.10
2023-05-02T19:15:57.955Z,64.20
2023-05-02T19:18:26.452Z,64.40
2023-05-02T19:20:55.077Z,64.30
2023-05-02T19:23:23.485Z,64.30
2023-05-02T19:25:52.575Z,64.70
2023-05-02T19:28:21.076Z,64.60
2023-05-02T19:31:17.577Z,65.00
2023-05-02T19:33:51.150Z,65.70
2023-05-02T19:36:21.854Z,65.50
2023-05-02T19:38:51.145Z,65.80
2023-05-02T19:41:19.915Z,66.40
2023-05-02T19:43:48.542Z,66.90
2023-05-02T19:46:19.055Z,67.40
2023-05-02T19:48:47.660Z,68.10
2023-05-02T19:51:16.197Z,68.60
2023-05-02T19:53:44.674Z,69.20
2023-05-02T19:56:13.161Z,69.70
2023-05-02T19:58:41.661Z,70.20
2023-05-02T20:01:10.165Z,71.40
2023-05-02T20:03:40.221Z,74.00
2023-05-02T20:06:08.916Z,73.00
2023-05-02T20:08:37.452Z,73.50
2023-05-02T20:11:06.239Z,72.90
2023-05-02T20:13:34.702Z,72.60
2023-05-02T20:16:03.170Z,73.30
2023-05-02T20:18:31.900Z,73.90
2023-05-02T20:21:26.931Z,75.10
2023-05-02T20:23:58.153Z,74.50
2023-05-02T20:26:26.669Z,74.60
2023-05-02T20:28:58.629Z,75.00
2023-05-02T20:31:27.401Z,74.30
2023-05-02T20:33:55.876Z,73.30
2023-05-02T20:36:24.398Z,73.70
2023-05-02T20:38:54.297Z,73.70
2023-05-02T20:41:23.976Z,74.10
2023-05-02T20:43:54.517Z,74.60
2023-05-02T20:46:24.828Z,74.70
2023-05-02T20:48:54.867Z,75.20
2023-05-02T20:51:23.325Z,75.70
2023-05-02T20:53:53.235Z,76.20
2023-05-02T20:56:21.808Z,76.30
2023-05-02T20:58:50.338Z,76.60
2023-05-02T21:01:18.849Z,76.80
2023-05-02T21:03:47.448Z,77.60
2023-05-02T21:06:16.034Z,77.20
2023-05-02T21:08:44.473Z,77.10
2023-05-02T21:11:15.520Z,77.80
2023-05-02T21:13:44.497Z,78.30
2023-05-02T21:16:20.229Z,79.10
2023-05-02T21:18:49.215Z,79.90
2023-05-02T21:21:17.733Z,80.50
2023-05-02T21:23:54.185Z,81.70
2023-05-02T21:26:48.929Z,83.00
2023-05-02T21:29:17.493Z,84.00
2023-05-02T21:31:46.912Z,84.00
2023-05-02T21:34:22.030Z,83.80
2023-05-02T21:36:50.496Z,83.20
2023-05-02T21:39:45.951Z,83.20
2023-05-02T21:42:15.780Z,83.70
2023-05-02T21:44:44.210Z,83.70
2023-05-02T21:47:12.964Z,83.80
2023-05-02T21:50:06.665Z,83.90
2023-05-02T21:52:36.186Z,84.70
2023-05-02T21:55:05.237Z,84.30
2023-05-02T21:57:40.076Z,84.90
2023-05-02T22:00:14.221Z,84.70
2023-05-02T22:03:07.532Z,85.00
2023-05-02T22:05:38.926Z,85.80
2023-05-02T22:08:08.290Z,86.50
2023-05-02T22:10:39.129Z,88.00
2023-05-02T22:13:16.341Z,88.00
2023-05-02T22:15:46.281Z,89.30
2023-05-02T22:18:34.010Z,90.20
2023-05-02T22:21:02.578Z,90.40
2023-05-02T22:23:31.614Z,90.40
2023-05-02T22:26:25.399Z,91.00
2023-05-02T22:28:55.279Z,91.10
2023-05-02T22:31:23.889Z,91.50
2023-05-02T22:33:52.380Z,91.60
2023-05-02T22:36:21.154Z,91.10
2023-05-02T22:38:49.719Z,91.20
2023-05-02T22:41:20.636Z,91.50
2023-05-02T22:43:49.512Z,91.30
2023-05-02T22:46:19.463Z,91.30
2023-05-02T22:48:49.195Z,91.20
2023-05-02T22:51:18.000Z,91.80
2023-05-02T22:53:46.381Z,92.30
2023-05-02T22:56:40.049Z,91.80
2023-05-02T22:59:08.419Z,92.10
2023-05-02T23:01:39.836Z,91.50
2023-05-02T23:04:08.413Z,91.60
2023-05-02T23:06:37.066Z,91.80
2023-05-02T23:09:07.012Z,92.10
2023-05-02T23:11:35.562Z,91.70
2023-05-02T23:14:04.017Z,91.70
2023-05-02T23:16:32.557Z,91.30
2023-05-02T23:19:02.486Z,90.70
2023-05-02T23:21:35.971Z,91.70
2023-05-02T23:24:04.737Z,92.30
2023-05-02T23:26:33.278Z,92.60
2023-05-02T23:29:01.823Z,92.20
2023-05-02T23:31:55.655Z,92.10
2023-05-02T23:34:26.165Z,90.40
2023-05-02T23:36:54.862Z,90.40
2023-05-02T23:39:23.827Z,87.80
2023-05-02T23:41:52.956Z,86.70
2023-05-02T23:44:57.677Z,85.20
2023-05-02T23:47:27.216Z,83.40
2023-05-02T23:49:57.263Z,83.40
2023-05-02T23:52:25.919Z,83.50
2023-05-02T23:54:54.801Z,83.70
2023-05-02T23:58:17.974Z,82.30
